Time;durP1;ratioP1;P1;durP2;ratioP2;P2;SDS_P1;SDS_P2;PMS_P1;PMS_P2;Temp;Humidity;BMP_temperature;BMP_pressure;BME280_temperature;BME280_humidity;BME280_pressure;Samples;Min_cycle;Max_cycle;Signal;HPM_P1;HPM_P2
2024/02/09 00:00:18;;;;;;;14.47;7.00;;;;;;;-11.19;100.00;98076.50;5020807;28;20360;-68
2024/02/09 00:02:47;;;;;;;14.00;7.20;;;;;;;-11.19;100.00;98075.69;5022206;28;20091;-68
2024/02/09 00:05:15;;;;;;;18.03;7.67;;;;;;;-11.18;100.00;98056.84;5005253;28;20348;-68
2024/02/09 00:07:45;;;;;;;12.77;6.63;;;;;;;-11.16;100.00;98066.13;5056899;28;20283;-68
2024/02/09 00:10:18;;;;;;;17.20;7.20;;;;;;;-11.18;100.00;98067.94;5021504;28;20353;-68
2024/02/09 00:12:45;;;;;;;17.20;7.50;;;;;;;-11.29;100.00;98064.97;5037643;28;20341;-68
2024/02/09 00:15:13;;;;;;;14.77;7.03;;;;;;;-11.31;100.00;98077.00;5037140;28;20045;-68
2024/02/09 00:17:39;;;;;;;14.90;7.43;;;;;;;-11.33;100.00;98076.22;5020845;28;20291;-67
2024/02/09 00:20:10;;;;;;;20.27;8.30;;;;;;;-11.23;100.00;98076.69;5020749;28;20291;-68
2024/02/09 00:22:37;;;;;;;16.07;7.43;;;;;;;-11.31;100.00;98061.63;5005186;28;20320;-67
2024/02/09 00:25:10;;;;;;;13.67;7.60;;;;;;;-11.29;100.00;98067.53;5037457;28;20623;-67
2024/02/09 00:27:37;;;;;;;20.83;8.00;;;;;;;-11.21;100.00;98062.09;5038146;28;20374;-68
2024/02/09 00:30:06;;;;;;;16.87;8.17;;;;;;;-11.19;100.00;98052.63;5037333;28;20295;-67
2024/02/09 00:32:36;;;;;;;16.53;7.40;;;;;;;-11.30;100.00;98068.41;5054831;28;20271;-67
2024/02/09 00:35:07;;;;;;;14.97;7.27;;;;;;;-11.24;100.00;98057.91;5020851;28;20322;-70
2024/02/09 00:37:38;;;;;;;17.40;7.13;;;;;;;-11.11;100.00;98064.19;5020147;28;20295;-70
2024/02/09 00:43:01;;;;;;;19.20;7.83;;;;;;;-11.17;100.00;98061.91;4999272;28;20068;-67
2024/02/09 00:45:36;;;;;;;12.67;7.00;;;;;;;-11.09;100.00;98064.97;4999187;28;20363;-67
2024/02/09 00:48:06;;;;;;;14.13;7.50;;;;;;;-11.17;100.00;98063.63;4999303;28;20378;-71
2024/02/09 00:50:35;;;;;;;15.80;6.87;;;;;;;-11.18;100.00;98074.78;4999390;28;20350;-67
2024/02/09 00:53:08;;;;;;;16.25;8.48;;;;;;;-11.21;100.00;98062.91;5000323;28;20743;-67
2024/02/09 00:55:35;;;;;;;17.67;8.33;;;;;;;-11.07;100.00;98062.34;5016882;28;20099;-70
2024/02/09 00:58:02;;;;;;;18.73;7.57;;;;;;;-11.07;100.00;98070.03;5000117;28;20385;-67
2024/02/09 01:00:30;;;;;;;21.10;8.83;;;;;;;-11.07;100.00;98062.34;4999276;28;20053;-67
2024/02/09 01:02:57;;;;;;;18.87;7.93;;;;;;;-11.02;100.00;98048.44;4982816;28;20276;-67
2024/02/09 01:05:26;;;;;;;17.40;6.80;;;;;;;-10.93;100.00;98053.16;4998858;28;20711;-67
2024/02/09 01:07:52;;;;;;;13.33;8.10;;;;;;;-11.03;100.00;98051.06;4987115;28;20383;-68
2024/02/09 01:10:18;;;;;;;13.23;7.10;;;;;;;-10.99;100.00;98063.69;5018730;28;20793;-68
2024/02/09 02:46:36;;;;;;;15.10;6.97;;;;;;;-11.42;100.00;98096.28;5054922;28;20306;-69
2024/02/09 03:05:34;;;;;;;13.37;6.40;;;;;;;-11.45;100.00;98094.66;5035116;28;20323;-68
2024/02/09 03:08:01;;;;;;;18.57;7.17;;;;;;;-11.47;100.00;98090.50;5018002;28;20325;-69
2024/02/09 03:10:29;;;;;;;12.80;6.60;;;;;;;-11.42;100.00;98089.41;5034560;28;20291;-68
2024/02/09 03:12:55;;;;;;;14.17;6.80;;;;;;;-11.44;100.00;98090.38;5050393;28;20295;-68
2024/02/09 03:15:22;;;;;;;12.90;6.70;;;;;;;-11.47;100.00;98091.31;5001250;28;20379;-68
2024/02/09 03:17:51;;;;;;;13.93;6.40;;;;;;;-11.47;100.00;98086.19;5033891;28;20049;-67
2024/02/09 03:20:18;;;;;;;13.87;6.40;;;;;;;-11.41;100.00;98091.09;5034250;28;20360;-68
2024/02/09 03:22:46;;;;;;;11.53;5.70;;;;;;;-11.40;100.00;98086.78;5001590;28;20326;-68
2024/02/09 03:25:13;;;;;;;14.47;7.20;;;;;;;-11.42;100.00;98091.97;5034772;28;20802;-67
2024/02/09 03:27:40;;;;;;;13.53;6.47;;;;;;;-11.42;100.00;98094.53;5017685;28;20299;-67
2024/02/09 03:30:08;;;;;;;12.00;6.43;;;;;;;-11.35;100.00;98088.28;5017435;28;20064;-66
2024/02/09 03:32:36;;;;;;;11.97;5.87;;;;;;;-11.34;100.00;98095.06;5017215;28;21288;-67
2024/02/09 03:35:04;;;;;;;9.70;5.30;;;;;;;-11.34;100.00;98102.75;5033389;28;20680;-68
2024/02/09 03:37:33;;;;;;;15.20;6.75;;;;;;;-11.41;100.00;98097.94;5017860;28;20279;-67
2024/02/09 03:40:05;;;;;;;12.75;5.72;;;;;;;-11.24;100.00;98100.66;5028257;28;20050;-68
2024/02/09 03:42:33;;;;;;;13.32;6.00;;;;;;;-11.36;100.00;98098.59;5031733;28;20103;-67
2024/02/09 03:44:59;;;;;;;13.77;6.17;;;;;;;-11.36;100.00;98104.53;5044305;28;20040;-67
2024/02/09 03:47:27;;;;;;;13.57;6.30;;;;;;;-11.27;100.00;98111.84;5027636;28;20288;-67
2024/02/09 03:49:54;;;;;;;11.33;5.70;;;;;;;-11.34;100.00;98109.59;4987867;28;20320;-67
2024/02/09 03:52:22;;;;;;;11.23;5.90;;;;;;;-11.34;100.00;98101.91;5006873;28;20276;-67
2024/02/09 03:54:51;;;;;;;10.97;6.03;;;;;;;-11.40;100.00;98108.13;5028851;28;20366;-67
2024/02/09 03:57:37;;;;;;;17.27;6.07;;;;;;;-11.28;100.00;98107.63;4977899;28;20684;-67
2024/02/09 04:00:10;;;;;;;14.30;6.47;;;;;;;-11.43;100.00;98108.25;5005278;28;20047;-68
2024/02/09 04:02:38;;;;;;;11.17;6.00;;;;;;;-11.55;100.00;98108.72;5015116;28;20323;-68
2024/02/09 04:05:04;;;;;;;12.00;6.07;;;;;;;-11.33;100.00;98106.16;5005229;28;20328;-68
2024/02/09 04:07:31;;;;;;;12.67;6.27;;;;;;;-11.34;100.00;98112.16;4982057;28;20041;-66
2024/02/09 04:10:02;;;;;;;11.90;5.70;;;;;;;-11.39;100.00;98106.41;4991369;28;20343;-68
2024/02/09 04:12:31;;;;;;;12.73;6.60;;;;;;;-11.41;100.00;98106.47;5026621;28;20284;-66
2024/02/09 04:14:57;;;;;;;10.67;6.17;;;;;;;-11.35;100.00;98116.47;4993807;28;20785;-67
2024/02/09 04:17:25;;;;;;;12.53;5.77;;;;;;;-11.28;100.00;98112.75;4994431;28;20291;-66
2024/02/09 04:19:53;;;;;;;14.57;6.20;;;;;;;-11.30;100.00;98123.94;4996697;28;20107;-66
2024/02/09 04:22:19;;;;;;;11.90;5.60;;;;;;;-11.35;100.00;98126.69;5033246;28;20662;-67
2024/02/09 04:24:47;;;;;;;14.10;6.10;;;;;;;-11.44;100.00;98123.66;4989146;28;20372;-66
2024/02/09 04:27:16;;;;;;;13.30;6.17;;;;;;;-11.41;100.00;98116.69;5027589;28;20041;-66
2024/02/09 04:29:43;;;;;;;11.53;5.73;;;;;;;-11.49;100.00;98116.16;4976291;28;20288;-68
2024/02/09 04:32:09;;;;;;;16.10;6.63;;;;;;;-11.49;100.00;98113.59;5002471;28;20367;-72
2024/02/09 04:34:35;;;;;;;10.73;5.77;;;;;;;-11.49;100.00;98123.00;5043431;28;20822;-66
2024/02/09 04:37:01;;;;;;;13.07;6.37;;;;;;;-11.47;100.00;98116.91;5035484;28;20060;-66
2024/02/09 04:39:29;;;;;;;11.93;5.93;;;;;;;-11.40;100.00;98110.69;5011329;28;20045;-67
2024/02/09 04:41:56;;;;;;;11.67;6.07;;;;;;;-11.33;100.00;98122.31;5018294;28;20487;-66
2024/02/09 04:44:24;;;;;;;13.27;5.73;;;;;;;-11.33;100.00;98130.00;5051689;28;20332;-69
2024/02/09 04:46:50;;;;;;;11.37;6.00;;;;;;;-11.41;100.00;98123.53;5020900;28;20303;-69
2024/02/09 04:49:17;;;;;;;14.70;6.70;;;;;;;-11.48;100.00;98138.31;5019838;28;20338;-69
2024/02/09 04:51:46;;;;;;;13.47;6.50;;;;;;;-11.49;100.00;98144.34;5004394;28;20283;-69
2024/02/09 04:54:12;;;;;;;12.10;6.70;;;;;;;-11.53;100.00;98142.78;5002237;28;20283;-69
2024/02/09 04:56:39;;;;;;;19.80;7.30;;;;;;;-11.44;100.00;98142.41;5005286;28;20307;-70
2024/02/09 04:59:10;;;;;;;11.60;6.03;;;;;;;-11.43;100.00;98126.16;5039808;28;20295;-69
2024/02/09 05:01:38;;;;;;;15.57;6.93;;;;;;;-11.41;100.00;98126.94;5039612;28;20809;-69
2024/02/09 05:04:11;;;;;;;11.50;6.10;;;;;;;-11.30;100.00;98134.19;5039085;28;20466;-69
2024/02/09 05:06:38;;;;;;;14.40;6.47;;;;;;;-11.42;100.00;98130.38;5006711;28;20283;-73
2024/02/09 05:09:29;;;;;;;13.80;6.43;;;;;;;-11.32;100.00;98130.84;5039906;28;20283;-71
2024/02/09 05:12:06;;;;;;;16.90;6.97;;;;;;;-11.43;100.00;98138.13;5039980;28;20347;-70
2024/02/09 05:14:35;;;;;;;10.63;6.23;;;;;;;-11.56;100.00;98132.66;5013343;28;20799;-70
2024/02/09 05:17:01;;;;;;;13.53;6.30;;;;;;;-11.52;100.00;98134.22;5036118;28;20302;-68
2024/02/09 05:19:30;;;;;;;13.17;6.63;;;;;;;-11.43;100.00;98136.41;5036204;28;20294;-69
2024/02/09 05:21:57;;;;;;;12.10;6.23;;;;;;;-11.44;100.00;98134.72;5020150;28;20090;-70
2024/02/09 05:24:25;;;;;;;13.77;6.20;;;;;;;-11.46;100.00;98154.47;5020400;28;20855;-70
2024/02/09 05:26:51;;;;;;;14.37;6.17;;;;;;;-11.43;100.00;98148.38;5019594;28;20645;-72
2024/02/09 05:29:19;;;;;;;11.80;5.50;;;;;;;-11.43;100.00;98156.91;5033389;28;20318;-70
2024/02/09 05:31:51;;;;;;;10.90;5.50;;;;;;;-11.36;100.00;98148.06;5034940;28;20298;-70
2024/02/09 05:34:18;;;;;;;9.37;5.33;;;;;;;-11.29;100.00;98151.22;5001681;28;20374;-69
2024/02/09 05:36:45;;;;;;;10.50;5.90;;;;;;;-11.23;100.00;98154.38;5036125;28;20295;-68
2024/02/09 05:39:11;;;;;;;11.80;6.00;;;;;;;-11.25;100.00;98145.06;5018846;28;20299;-69
2024/02/09 05:41:37;;;;;;;12.53;5.80;;;;;;;-11.21;100.00;98160.25;5001358;28;20299;-70
2024/02/09 05:44:06;;;;;;;13.43;6.10;;;;;;;-11.08;100.00;98165.72;5034783;28;20133;-71
2024/02/09 05:46:34;;;;;;;12.20;5.90;;;;;;;-11.08;100.00;98174.25;5053639;28;20283;-72
2024/02/09 05:49:06;;;;;;;11.48;5.78;;;;;;;-11.06;100.00;98180.16;5003744;28;20314;-70
2024/02/09 05:51:34;;;;;;;11.73;5.77;;;;;;;-11.04;100.00;98162.97;5020509;28;20060;-65
2024/02/09 05:54:02;;;;;;;10.83;6.07;;;;;;;-10.97;100.00;98178.94;5053065;28;20298;-67
2024/02/09 05:56:36;;;;;;;12.90;6.03;;;;;;;-11.01;100.00;98195.34;5020648;28;20462;-66
2024/02/09 05:59:04;;;;;;;13.07;6.63;;;;;;;-10.97;100.00;98189.19;5019546;28;20303;-66
2024/02/09 06:01:34;;;;;;;14.20;6.23;;;;;;;-10.93;100.00;98201.00;5003750;28;20164;-66
2024/02/09 06:04:02;;;;;;;13.67;6.53;;;;;;;-10.94;100.00;98178.81;5053384;28;20340;-65
2024/02/09 06:06:31;;;;;;;13.23;6.20;;;;;;;-10.81;100.00;98198.75;5014881;28;20286;-66
2024/02/09 06:09:01;;;;;;;14.00;7.70;;;;;;;-10.86;100.00;98197.28;5017174;28;20322;-65
2024/02/09 06:11:27;;;;;;;11.30;6.17;;;;;;;-10.77;100.00;98205.44;4999468;28;20332;-66
2024/02/09 06:13:53;;;;;;;14.43;6.13;;;;;;;-10.72;100.00;98200.13;5016742;28;20283;-66
2024/02/09 06:16:20;;;;;;;13.57;5.93;;;;;;;-10.65;100.00;98207.50;5014838;28;20049;-66
2024/02/09 06:18:49;;;;;;;11.37;5.77;;;;;;;-10.53;100.00;98200.19;4963109;28;20506;-66
2024/02/09 06:21:18;;;;;;;10.70;5.90;;;;;;;-10.42;100.00;98188.56;4964423;28;20358;-66
2024/02/09 06:23:47;;;;;;;11.35;6.45;;;;;;;-10.29;100.00;98194.84;4980927;28;20296;-66
2024/02/09 06:26:16;;;;;;;11.47;5.33;;;;;;;-10.07;100.00;98194.75;4996864;28;20045;-66
2024/02/09 06:28:46;;;;;;;16.00;6.43;;;;;;;-9.99;100.00;98196.03;4996936;28;20280;-66
2024/02/09 06:31:26;;;;;;;11.82;5.38;;;;;;;-9.75;100.00;98201.81;5016412;28;20287;-66
2024/02/09 06:33:54;;;;;;;10.70;5.43;;;;;;;-9.64;100.00;98199.59;5017492;28;20037;-66
2024/02/09 06:36:23;;;;;;;10.83;5.67;;;;;;;-9.53;100.00;98218.75;5002486;28;20044;-66
2024/02/09 06:38:50;;;;;;;11.17;5.90;;;;;;;-9.34;100.00;98213.59;5034665;28;20353;-66
2024/02/09 06:41:16;;;;;;;13.50;5.80;;;;;;;-9.20;100.00;98206.06;5016369;28;20386;-66
2024/02/09 06:43:43;;;;;;;10.13;5.03;;;;;;;-8.99;100.00;98226.47;5000147;28;20422;-67
2024/02/09 06:46:09;;;;;;;11.00;5.83;;;;;;;-8.79;100.00;98215.22;5017105;28;20779;-66
2024/02/09 06:48:35;;;;;;;12.67;5.70;;;;;;;-8.58;100.00;98211.59;5055716;28;20351;-66
2024/02/09 06:51:07;;;;;;;10.63;5.27;;;;;;;-8.43;100.00;98213.41;5056282;28;20719;-66
2024/02/09 06:53:34;;;;;;;11.83;5.40;;;;;;;-8.25;100.00;98202.19;5016275;28;20299;-66
2024/02/09 06:56:01;;;;;;;8.70;5.10;;;;;;;-8.02;100.00;98208.69;4973691;28;20296;-66
2024/02/09 06:58:33;;;;;;;8.63;5.17;;;;;;;-7.74;100.00;98202.03;4935784;29;20294;-66
2024/02/09 07:01:01;;;;;;;9.93;4.90;;;;;;;-7.47;100.00;98200.56;4934915;29;20306;-66
2024/02/09 07:03:28;;;;;;;10.63;5.33;;;;;;;-7.15;100.00;98194.47;4899603;29;20299;-66
2024/02/09 07:05:54;;;;;;;9.10;5.17;;;;;;;-7.01;100.00;98211.75;4909410;29;20067;-66
2024/02/09 07:08:30;;;;;;;12.47;5.77;;;;;;;-6.76;100.00;98204.31;4878355;29;20052;-66
2024/02/09 07:11:01;;;;;;;9.83;5.30;;;;;;;-6.41;100.00;98202.31;4876857;29;20072;-66
2024/02/09 07:13:30;;;;;;;11.30;5.30;;;;;;;-6.32;100.00;98199.19;4894632;29;20052;-66
2024/02/09 07:16:02;;;;;;;11.13;6.00;;;;;;;-5.69;100.00;98200.50;4894834;29;20060;-66
2024/02/09 07:18:33;;;;;;;8.10;5.40;;;;;;;-4.30;100.00;98198.38;4877463;29;20064;-66
2024/02/09 07:20:59;;;;;;;10.00;5.60;;;;;;;-2.78;100.00;98199.84;4878205;29;20052;-66
2024/02/09 07:23:27;;;;;;;12.93;6.67;;;;;;;-0.80;100.00;98194.03;4878983;29;20056;-66
2024/02/09 07:25:54;;;;;;;10.97;6.17;;;;;;;1.35;100.00;98178.94;4899792;29;20081;-66
2024/02/09 07:28:21;;;;;;;13.30;6.60;;;;;;;3.03;91.57;98203.41;4885871;28;20566;-66
2024/02/09 07:30:57;;;;;;;9.53;6.27;;;;;;;4.57;85.24;98184.44;4953359;28;20151;-66
2024/02/09 07:33:23;;;;;;;8.37;5.80;;;;;;;6.01;76.57;98202.50;4938051;28;20065;-67
2024/02/09 07:35:50;;;;;;;7.80;5.88;;;;;;;7.17;69.55;98202.78;4956436;28;20042;-66
2024/02/09 07:38:16;;;;;;;9.30;6.13;;;;;;;7.85;62.03;98210.84;4943940;28;20056;-66
2024/02/09 07:40:42;;;;;;;9.52;6.60;;;;;;;8.12;56.04;98207.66;4990292;28;20119;-67
2024/02/09 07:43:08;;;;;;;8.60;5.70;;;;;;;7.88;49.17;98213.13;5000457;28;20025;-66
2024/02/09 07:45:35;;;;;;;9.98;6.28;;;;;;;7.65;45.34;98213.13;5032736;28;20051;-67
2024/02/09 07:48:01;;;;;;;8.27;5.72;;;;;;;8.24;47.78;98208.94;5016725;28;20056;-67
2024/02/09 07:50:27;;;;;;;9.40;6.28;;;;;;;8.84;42.03;98204.38;5003648;28;20131;-67
2024/02/09 07:52:54;;;;;;;10.43;6.10;;;;;;;9.92;44.26;98214.91;5037075;28;20044;-68
2024/02/09 07:55:21;;;;;;;10.38;6.40;;;;;;;10.56;42.36;98215.75;5004559;28;20049;-68
2024/02/09 07:57:49;;;;;;;10.07;5.95;;;;;;;11.28;39.97;98224.19;5004822;28;20072;-67
2024/02/09 08:00:20;;;;;;;10.73;6.68;;;;;;;11.70;36.78;98221.34;5004561;28;20051;-67
2024/02/09 08:02:46;;;;;;;8.60;6.38;;;;;;;11.86;35.41;98226.28;5004550;28;20087;-67
2024/02/09 08:05:19;;;;;;;10.23;6.32;;;;;;;12.34;36.29;98213.69;5036651;28;20099;-67
2024/02/09 08:07:46;;;;;;;8.98;6.38;;;;;;;12.52;36.38;98205.91;5020517;28;20503;-67
2024/02/09 08:10:15;;;;;;;7.40;5.90;;;;;;;13.04;34.65;98212.03;5003638;28;20055;-67
2024/02/09 08:12:42;;;;;;;8.02;6.20;;;;;;;13.56;35.18;98203.09;5019214;28;20494;-67
2024/02/09 08:15:11;;;;;;;9.55;6.30;;;;;;;13.13;29.36;98221.44;5003196;28;20483;-67
2024/02/09 08:17:48;;;;;;;9.95;6.60;;;;;;;12.64;28.12;98215.75;5036907;28;20052;-67
2024/02/09 08:20:15;;;;;;;9.65;6.10;;;;;;;12.29;30.25;98214.31;5003140;28;20513;-67
2024/02/09 08:22:44;;;;;;;8.02;5.60;;;;;;;11.97;28.52;98217.72;5002241;28;20100;-66
2024/02/09 08:25:12;;;;;;;7.45;5.57;;;;;;;12.12;28.91;98207.72;5002331;28;20463;-66
2024/02/09 08:27:38;;;;;;;7.80;5.60;;;;;;;13.38;30.61;98202.94;5018021;28;20155;-67
2024/02/09 08:30:08;;;;;;;6.53;5.38;;;;;;;13.64;28.34;98202.81;4979423;28;20050;-67
2024/02/09 08:32:35;;;;;;;10.50;5.65;;;;;;;14.10;27.33;98214.06;4962687;28;20058;-67
2024/02/09 08:35:04;;;;;;;8.57;5.85;;;;;;;14.60;28.45;98198.97;4963020;28;20416;-67
2024/02/09 08:37:31;;;;;;;7.18;5.15;;;;;;;14.66;27.94;98211.44;4979431;28;20052;-67
2024/02/09 08:39:58;;;;;;;7.90;5.60;;;;;;;14.58;28.67;98207.19;4962664;28;20116;-67
2024/02/09 08:42:27;;;;;;;7.57;5.53;;;;;;;14.91;28.61;98206.91;4979006;28;20077;-67
2024/02/09 08:44:54;;;;;;;6.95;5.63;;;;;;;15.13;28.62;98197.41;4978583;28;20054;-67
2024/02/09 08:47:23;;;;;;;10.77;6.45;;;;;;;15.38;29.48;98200.88;4978678;28;20385;-67
2024/02/09 08:49:49;;;;;;;9.00;5.57;;;;;;;14.45;25.14;98193.94;4995179;28;20144;-67
2024/02/09 08:52:17;;;;;;;7.00;5.47;;;;;;;15.42;27.62;98198.59;4978981;28;20144;-67
2024/02/09 08:54:48;;;;;;;8.93;5.93;;;;;;;15.50;25.96;98191.06;4996725;28;20143;-69
2024/02/09 08:57:20;;;;;;;;;;;;;;;16.02;26.28;98197.63;5014645;28;20435;-68
2024/02/09 08:59:47;;;;;;;7.10;4.72;;;;;;;16.16;26.61;98191.84;4982603;28;19942;-67
2024/02/09 09:02:13;;;;;;;9.25;5.93;;;;;;;15.76;25.06;98190.75;5000471;28;20048;-67
2024/02/09 09:04:39;;;;;;;9.43;6.15;;;;;;;16.28;25.56;98179.28;5000965;28;20392;-67
2024/02/09 09:07:04;;;;;;;7.43;5.55;;;;;;;16.59;26.10;98187.06;4985246;28;20057;-67
2024/02/09 09:09:31;;;;;;;8.48;6.22;;;;;;;15.75;22.82;98180.25;5001384;28;20056;-67
2024/02/09 09:11:58;;;;;;;9.13;5.82;;;;;;;15.82;24.55;98187.16;5000293;28;20522;-67
2024/02/09 09:14:25;;;;;;;9.82;6.05;;;;;;;15.77;24.40;98179.00;5013979;28;20353;-67
2024/02/09 09:16:52;;;;;;;9.05;5.68;;;;;;;15.77;25.25;98194.25;4997931;28;20064;-67
2024/02/09 09:19:19;;;;;;;8.75;6.40;;;;;;;15.19;23.19;98192.00;4998311;28;20064;-67
2024/02/09 09:21:48;;;;;;;9.02;6.05;;;;;;;14.67;23.69;98195.19;4997692;28;20501;-67
2024/02/09 09:24:16;;;;;;;9.98;6.05;;;;;;;14.46;25.19;98186.75;4997675;28;20115;-67
2024/02/09 09:26:45;;;;;;;7.45;5.45;;;;;;;15.15;25.32;98184.66;5046040;28;20107;-67
2024/02/09 09:29:13;;;;;;;7.18;5.53;;;;;;;15.86;24.84;98182.19;5000134;28;20487;-66
2024/02/09 09:31:38;;;;;;;6.82;5.50;;;;;;;16.92;25.76;98169.59;5000735;28;20056;-67
2024/02/09 09:34:04;;;;;;;7.70;5.47;;;;;;;15.67;23.53;98169.88;5033774;28;20053;-67
2024/02/09 09:36:33;;;;;;;9.43;5.50;;;;;;;16.31;23.98;98170.00;4985434;28;20052;-67
2024/02/09 09:39:05;;;;;;;7.85;5.70;;;;;;;16.85;22.19;98172.41;4986611;28;20058;-67
2024/02/09 09:41:37;;;;;;;8.23;5.55;;;;;;;16.94;22.68;98176.38;4985116;28;20167;-67
2024/02/09 09:44:04;;;;;;;6.25;4.97;;;;;;;17.40;23.27;98173.63;5000969;28;20049;-67
2024/02/09 09:46:30;;;;;;;6.53;5.00;;;;;;;17.45;23.11;98171.06;5017552;28;20052;-67
2024/02/09 09:48:57;;;;;;;7.05;5.43;;;;;;;16.96;21.48;98170.78;4981200;28;20217;-67
2024/02/09 09:51:30;;;;;;;7.32;5.80;;;;;;;16.30;21.34;98174.53;4997363;28;20466;-68
2024/02/09 09:54:00;;;;;;;6.88;5.40;;;;;;;16.40;20.82;98165.94;5014223;28;20147;-67
2024/02/09 09:56:27;;;;;;;6.80;5.10;;;;;;;15.55;20.75;98177.84;4965122;28;20333;-67
2024/02/09 09:58:53;;;;;;;8.77;5.18;;;;;;;16.01;20.42;98166.50;4981027;28;20057;-66
2024/02/09 10:01:20;;;;;;;7.18;5.10;;;;;;;17.08;21.74;98159.00;4980814;28;20100;-67
2024/02/09 10:03:48;;;;;;;7.55;5.28;;;;;;;16.90;19.21;98166.34;4980853;28;20459;-66
2024/02/09 10:06:16;;;;;;;8.23;5.22;;;;;;;17.22;19.95;98162.25;4981394;28;20514;-67
2024/02/09 10:08:42;;;;;;;6.53;4.80;;;;;;;18.05;19.96;98171.47;4997087;28;20072;-67
2024/02/09 10:11:10;;;;;;;8.82;5.07;;;;;;;18.32;18.47;98169.78;4980898;28;20226;-67
2024/02/09 10:13:40;;;;;;;6.97;4.82;;;;;;;18.38;17.66;98166.16;4978842;28;20076;-66
2024/02/09 10:16:06;;;;;;;7.05;4.50;;;;;;;18.63;18.44;98174.66;5016263;28;20087;-67
2024/02/09 10:18:35;;;;;;;6.38;5.18;;;;;;;18.08;17.00;98176.34;5016030;28;20044;-66
2024/02/09 10:21:08;;;;;;;6.43;4.80;;;;;;;17.61;16.35;98174.88;5036529;28;20084;-67
2024/02/09 10:23:34;;;;;;;8.10;4.85;;;;;;;16.84;16.33;98176.97;5036904;28;20048;-68
2024/02/09 10:26:05;;;;;;;5.65;4.00;;;;;;;16.84;15.88;98163.53;5023111;28;20051;-67
2024/02/09 10:28:33;;;;;;;5.70;4.03;;;;;;;16.76;15.72;98166.56;5022849;28;20117;-66
2024/02/09 10:31:00;;;;;;;5.80;4.18;;;;;;;16.59;15.47;98175.56;5035914;28;20172;-66
2024/02/09 10:33:28;;;;;;;5.93;4.30;;;;;;;15.87;15.51;98170.41;5002991;28;20059;-67
2024/02/09 10:35:57;;;;;;;6.15;4.47;;;;;;;15.24;15.90;98169.94;5019826;28;20174;-66
2024/02/09 10:38:25;;;;;;;5.28;4.28;;;;;;;14.25;15.91;98176.44;5036231;28;20047;-67
2024/02/09 10:40:59;;;;;;;5.18;4.10;;;;;;;12.75;16.48;98175.16;5003671;28;20059;-66
2024/02/09 10:43:30;;;;;;;6.38;4.15;;;;;;;13.05;17.57;98173.69;5052978;28;20040;-66
2024/02/09 10:45:57;;;;;;;5.43;4.10;;;;;;;13.65;17.09;98171.63;5019374;28;20056;-67
2024/02/09 10:48:37;;;;;;;4.60;3.95;;;;;;;14.12;16.83;98184.50;4999749;28;20053;-66
2024/02/09 10:51:07;;;;;;;8.18;4.97;;;;;;;13.09;16.42;98180.25;5016024;28;20061;-66
2024/02/09 10:53:36;;;;;;;;;;;;;;;13.40;16.73;98177.72;5015974;28;20037;-67
2024/02/09 10:56:05;;;;;;;6.10;4.45;;;;;;;13.49;16.56;98176.44;5015825;28;19939;-66
2024/02/09 10:58:32;;;;;;;6.60;4.40;;;;;;;13.94;16.70;98187.06;5015343;28;20582;-67
2024/02/09 11:01:00;;;;;;;5.47;4.05;;;;;;;14.51;16.44;98174.38;5015867;28;20060;-66
2024/02/09 11:03:28;;;;;;;5.00;4.00;;;;;;;14.80;16.28;98176.38;5016537;28;20525;-66
2024/02/09 11:05:56;;;;;;;7.60;3.80;;;;;;;14.65;16.59;98191.13;4995928;28;20103;-67
2024/02/09 11:08:24;;;;;;;4.22;3.50;;;;;;;13.92;16.76;98181.13;4996190;28;20084;-66
2024/02/09 11:11:00;;;;;;;5.40;3.83;;;;;;;13.92;16.26;98184.63;4996821;28;20468;-66
2024/02/09 11:13:26;;;;;;;4.78;3.58;;;;;;;14.06;16.60;98180.00;4995897;28;20100;-66
2024/02/09 11:15:58;;;;;;;5.72;3.50;;;;;;;14.28;16.66;98181.34;4996757;28;20061;-66
2024/02/09 11:18:38;;;;;;;5.90;3.53;;;;;;;14.40;16.58;98183.09;4979888;28;20095;-68
2024/02/09 11:21:11;;;;;;;3.78;3.22;;;;;;;14.21;16.58;98180.53;5010102;28;20063;-66
2024/02/09 11:23:40;;;;;;;4.75;3.45;;;;;;;13.86;17.13;98179.31;5030034;28;20072;-66
2024/02/09 11:26:16;;;;;;;4.38;3.30;;;;;;;13.51;17.26;98186.88;4969585;28;20053;-66
2024/02/09 11:28:43;;;;;;;5.82;3.25;;;;;;;12.66;17.19;98194.22;5002733;28;20056;-66
2024/02/09 11:31:12;;;;;;;4.20;2.97;;;;;;;11.78;18.65;98184.72;5002801;28;20080;-66
2024/02/09 11:33:41;;;;;;;4.15;3.30;;;;;;;11.30;18.23;98196.38;5002444;28;20147;-66
2024/02/09 11:36:08;;;;;;;5.38;3.38;;;;;;;10.90;18.37;98185.75;5005910;28;20061;-67
2024/02/09 11:38:34;;;;;;;5.60;3.15;;;;;;;9.40;19.73;98169.25;4990339;28;20135;-67
2024/02/09 11:41:00;;;;;;;5.30;3.00;;;;;;;8.58;20.23;98166.94;5023178;28;20128;-66
2024/02/09 11:43:29;;;;;;;6.90;2.92;;;;;;;7.80;20.86;98171.72;4986000;28;20543;-66
2024/02/09 11:45:56;;;;;;;5.10;3.13;;;;;;;6.93;21.34;98160.66;4985969;28;20139;-66
2024/02/09 11:48:24;;;;;;;10.32;3.45;;;;;;;5.97;22.46;98171.38;5002252;28;20164;-68
2024/02/09 11:50:53;;;;;;;5.47;3.60;;;;;;;5.30;22.99;98166.31;5002387;28;20049;-67
2024/02/09 11:53:26;;;;;;;5.15;3.30;;;;;;;4.92;23.81;98157.97;5002341;28;20045;-68
2024/02/09 11:55:55;;;;;;;5.47;3.47;;;;;;;4.21;24.73;98169.78;5002158;28;20151;-66
2024/02/09 11:58:26;;;;;;;4.60;2.97;;;;;;;3.45;25.58;98183.56;5001883;28;20280;-68
2024/02/09 12:00:57;;;;;;;4.07;3.03;;;;;;;2.64;26.68;98173.94;5019253;28;20077;-66
2024/02/09 12:03:34;;;;;;;4.13;3.10;;;;;;;2.19;27.55;98180.84;4970427;28;20049;-66
2024/02/09 12:06:02;;;;;;;4.67;3.10;;;;;;;1.61;28.34;98190.53;4986983;28;20168;-66
2024/02/09 12:08:29;;;;;;;5.27;2.90;;;;;;;1.36;28.92;98187.63;4994783;28;20054;-67
2024/02/09 12:10:57;;;;;;;5.47;2.90;;;;;;;0.84;29.61;98188.75;4930783;28;20057;-66
2024/02/09 12:13:32;;;;;;;4.37;2.97;;;;;;;0.24;30.79;98190.53;4946617;28;20046;-70
2024/02/09 12:16:03;;;;;;;5.07;3.00;;;;;;;0.11;30.96;98190.75;4963111;28;20110;-66
2024/02/09 12:18:37;;;;;;;5.47;2.73;;;;;;;-0.09;31.61;98191.56;4978474;28;20083;-67
2024/02/09 12:21:05;;;;;;;3.43;2.70;;;;;;;-0.38;32.27;98201.81;4978756;28;20566;-66
2024/02/09 12:23:39;;;;;;;3.83;2.70;;;;;;;-0.67;33.10;98197.28;4962896;28;20042;-66
2024/02/09 12:26:09;;;;;;;7.80;3.10;;;;;;;-0.97;33.91;98210.16;4990985;28;20058;-66
2024/02/09 12:28:36;;;;;;;4.97;3.13;;;;;;;-1.29;34.81;98202.25;4940131;28;20051;-68
2024/02/09 12:31:09;;;;;;;5.13;3.17;;;;;;;-1.50;35.10;98203.09;4924409;28;20047;-69
2024/02/09 12:33:45;;;;;;;6.63;2.90;;;;;;;-1.77;36.23;98206.06;4971639;28;20382;-73
2024/02/09 12:36:19;;;;;;;6.23;3.00;;;;;;;-1.91;36.77;98214.06;4971151;28;20066;-71
2024/02/09 12:38:45;;;;;;;6.43;2.77;;;;;;;-2.11;37.44;98210.34;4977344;28;20058;-70
2024/02/09 12:41:12;;;;;;;5.30;2.70;;;;;;;-2.09;37.73;98211.06;4976988;28;20065;-69
2024/02/09 12:43:45;;;;;;;4.63;3.00;;;;;;;-2.25;38.22;98212.31;4977073;28;20088;-66
2024/02/09 12:46:13;;;;;;;4.73;2.90;;;;;;;-2.36;39.20;98214.88;4992020;28;20054;-67
2024/02/09 12:48:41;;;;;;;5.23;2.87;;;;;;;-2.53;39.22;98221.31;4975391;28;20073;-68
2024/02/09 12:51:07;;;;;;;6.47;2.70;;;;;;;-2.86;40.57;98212.53;4976464;28;20053;-69
2024/02/09 12:53:33;;;;;;;4.87;2.90;;;;;;;-2.94;40.78;98215.69;4991731;28;20138;-68
2024/02/09 12:55:59;;;;;;;4.93;2.97;;;;;;;-3.05;41.18;98215.63;4959480;28;20074;-69
2024/02/09 12:58:25;;;;;;;5.53;2.57;;;;;;;-3.30;41.97;98214.81;4975086;28;20149;-70
2024/02/09 13:00:54;;;;;;;2.97;2.17;;;;;;;-3.32;42.70;98216.72;4975702;28;20046;-69
2024/02/09 13:03:21;;;;;;;6.47;2.77;;;;;;;-3.30;43.16;98223.47;4953031;28;20075;-70
2024/02/09 13:05:50;;;;;;;3.50;2.60;;;;;;;-3.27;44.27;98232.78;4993739;28;20148;-70
2024/02/09 13:08:15;;;;;;;3.10;2.30;;;;;;;-3.38;44.59;98228.34;5011451;28;20054;-69
2024/02/09 13:10:41;;;;;;;3.60;2.60;;;;;;;-3.38;44.49;98237.91;4996979;28;20052;-73
2024/02/09 13:13:07;;;;;;;3.13;2.10;;;;;;;-3.35;44.90;98235.91;4995313;28;20104;-70
2024/02/09 13:15:37;;;;;;;5.53;3.07;;;;;;;-3.31;45.14;98237.38;4978415;28;20392;-70
2024/02/09 13:18:11;;;;;;;4.70;2.80;;;;;;;-3.40;45.64;98237.19;4994833;28;20258;-69
2024/02/09 13:20:37;;;;;;;3.93;2.33;;;;;;;-3.36;45.96;98241.22;4994217;28;20147;-69
2024/02/09 13:23:04;;;;;;;4.10;2.57;;;;;;;-3.37;46.25;98232.63;5008789;28;20092;-70